createdAt,value
2023-02-22T00:01:35.444Z,12.43
2023-02-22T00:04:04.471Z,12.40
2023-02-22T00:06:31.551Z,9.00
2023-02-22T00:08:59.044Z,14.43
2023-02-22T00:11:26.252Z,11.67
2023-02-22T00:13:57.032Z,8.03
2023-02-22T00:16:25.613Z,9.60
2023-02-22T00:18:53.353Z,8.87
2023-02-22T00:21:20.668Z,10.27
2023-02-22T00:23:48.510Z,10.13
2023-02-22T00:26:20.613Z,9.33
2023-02-22T00:28:52.640Z,8.33
2023-02-22T00:31:21.279Z,8.80
2023-02-22T00:33:49.812Z,8.33
2023-02-22T00:36:17.749Z,9.33
2023-02-22T00:38:44.844Z,8.30
2023-02-22T00:41:12.457Z,9.73
2023-02-22T00:43:39.574Z,11.83
2023-02-22T00:46:06.701Z,8.43
2023-02-22T00:48:33.909Z,10.10
2023-02-22T00:51:01.660Z,17.37
2023-02-22T00:53:30.184Z,5.17
2023-02-22T00:55:57.349Z,4.73
2023-02-22T00:58:24.640Z,6.23
2023-02-22T01:00:51.785Z,7.37
2023-02-22T01:03:20.072Z,7.77
2023-02-22T01:05:47.895Z,6.87
2023-02-22T01:08:16.711Z,27.13
2023-02-22T01:10:44.177Z,9.93
2023-02-22T01:13:13.010Z,71.37
2023-02-22T01:15:42.895Z,32.53
2023-02-22T01:18:12.532Z,20.23
2023-02-22T01:20:39.672Z,13.13
2023-02-22T01:23:08.280Z,14.67
2023-02-22T01:25:35.792Z,28.73
2023-02-22T01:28:04.015Z,8.17
2023-02-22T01:30:33.319Z,9.50
2023-02-22T01:33:01.705Z,10.50
2023-02-22T01:35:30.971Z,10.13
2023-02-22T01:37:58.478Z,10.10
2023-02-22T01:40:29.598Z,9.90
2023-02-22T01:42:58.888Z,7.77
2023-02-22T01:45:32.618Z,14.40
2023-02-22T01:48:06.112Z,14.83
2023-02-22T01:50:37.158Z,9.67
2023-02-22T01:53:05.399Z,20.33
2023-02-22T01:55:34.549Z,9.63
2023-02-22T01:58:02.561Z,7.23
2023-02-22T02:00:30.621Z,7.37
2023-02-22T02:03:06.432Z,10.63
2023-02-22T02:05:34.300Z,9.20
2023-02-22T02:08:09.583Z,10.83
2023-02-22T02:10:36.689Z,10.53
2023-02-22T02:13:06.498Z,16.60
2023-02-22T02:15:33.965Z,29.10
2023-02-22T02:18:08.884Z,30.43
2023-02-22T02:20:35.930Z,16.90
2023-02-22T02:23:06.111Z,32.03
2023-02-22T02:26:00.621Z,21.83
2023-02-22T02:28:53.333Z,12.17
2023-02-22T02:31:27.720Z,14.90
2023-02-22T02:34:06.059Z,29.20
2023-02-22T02:37:00.208Z,29.90
2023-02-22T02:39:37.821Z,26.33
2023-02-22T02:42:07.879Z,42.93
2023-02-22T02:44:48.600Z,27.00
2023-02-22T02:47:23.977Z,17.30
2023-02-22T02:50:14.048Z,20.67
2023-02-22T02:52:41.935Z,8.03
2023-02-22T02:55:11.287Z,13.90
2023-02-22T02:57:41.156Z,11.63
2023-02-22T03:00:23.954Z,8.37
2023-02-22T03:03:26.008Z,7.90
2023-02-22T03:06:26.573Z,7.27
2023-02-22T03:09:25.362Z,11.23
2023-02-22T03:12:27.649Z,31.10
2023-02-22T03:15:21.973Z,18.93
2023-02-22T03:18:00.312Z,17.40
2023-02-22T03:20:48.570Z,12.57
2023-02-22T03:23:15.686Z,9.70
2023-02-22T03:25:51.087Z,29.63
2023-02-22T03:28:21.995Z,39.23
2023-02-22T03:30:55.535Z,16.87
2023-02-22T03:33:41.055Z,86.27
2023-02-22T03:36:19.727Z,13.90
2023-02-22T03:38:48.433Z,38.27
2023-02-22T03:41:18.440Z,23.37
2023-02-22T03:43:50.341Z,9.67
2023-02-22T03:46:19.238Z,18.50
2023-02-22T03:48:59.936Z,22.47
2023-02-22T03:51:31.256Z,16.47
2023-02-22T03:54:00.993Z,34.87
2023-02-22T03:56:47.016Z,14.80
2023-02-22T03:59:14.685Z,57.80
2023-02-22T04:01:41.835Z,48.97
2023-02-22T04:04:08.914Z,53.83
2023-02-22T04:06:38.135Z,45.60
2023-02-22T04:09:05.460Z,37.20
2023-02-22T04:11:32.626Z,33.93
2023-02-22T04:14:00.736Z,42.53
2023-02-22T04:16:28.029Z,109.70
2023-02-22T04:18:54.874Z,26.33
2023-02-22T04:21:21.989Z,59.43
2023-02-22T04:23:50.507Z,29.23
2023-02-22T04:26:18.086Z,21.73
2023-02-22T04:28:50.970Z,21.50
2023-02-22T04:31:19.918Z,44.40
2023-02-22T04:33:47.276Z,23.10
2023-02-22T04:36:18.098Z,48.37
2023-02-22T04:38:45.990Z,21.03
2023-02-22T04:41:13.060Z,20.93
2023-02-22T04:43:40.407Z,22.40
2023-02-22T04:46:15.649Z,32.40
2023-02-22T04:48:42.795Z,22.17
2023-02-22T04:51:09.862Z,26.20
2023-02-22T04:53:39.508Z,33.07
2023-02-22T04:56:06.757Z,43.00
2023-02-22T04:58:33.938Z,74.70
2023-02-22T05:01:01.350Z,42.93
2023-02-22T05:03:28.443Z,32.27
2023-02-22T05:05:55.649Z,60.17
2023-02-22T05:08:22.774Z,30.40
2023-02-22T05:10:49.955Z,60.13
2023-02-22T05:13:17.055Z,25.93
2023-02-22T05:15:44.149Z,24.27
2023-02-22T05:18:11.251Z,35.50
2023-02-22T05:20:38.340Z,57.00
2023-02-22T05:23:05.612Z,26.17
2023-02-22T05:25:33.464Z,83.57
2023-02-22T05:28:03.225Z,114.93
2023-02-22T05:30:35.641Z,91.20
2023-02-22T05:33:03.168Z,105.83
2023-02-22T05:35:30.309Z,93.50
2023-02-22T05:37:57.549Z,130.67
2023-02-22T05:40:26.315Z,68.70
2023-02-22T05:42:53.673Z,137.27
2023-02-22T05:45:23.921Z,44.80
2023-02-22T05:47:53.394Z,68.43
2023-02-22T05:50:21.312Z,90.43
2023-02-22T05:52:48.864Z,175.20
2023-02-22T05:55:17.898Z,42.73
2023-02-22T05:57:45.179Z,73.87
2023-02-22T06:00:27.305Z,64.37
2023-02-22T06:03:14.279Z,23.30
2023-02-22T06:05:42.443Z,39.03
2023-02-22T06:08:09.697Z,70.50
2023-02-22T06:10:36.913Z,17.23
2023-02-22T06:13:05.129Z,40.37
2023-02-22T06:15:32.267Z,29.03
2023-02-22T06:18:00.142Z,30.93
2023-02-22T06:20:29.039Z,25.90
2023-02-22T06:22:57.680Z,21.80
2023-02-22T06:25:26.993Z,28.37
2023-02-22T06:27:54.480Z,26.97
2023-02-22T06:30:23.745Z,46.73
2023-02-22T06:32:50.844Z,54.30
2023-02-22T06:35:18.039Z,25.57
2023-02-22T06:37:45.287Z,20.53
2023-02-22T06:40:13.138Z,22.83
2023-02-22T06:42:40.725Z,33.60
2023-02-22T06:45:08.100Z,62.83
2023-02-22T06:47:39.823Z,33.50
2023-02-22T06:50:07.127Z,30.63
2023-02-22T06:52:34.312Z,54.63
2023-02-22T06:55:01.411Z,67.03
2023-02-22T06:57:28.467Z,26.50
2023-02-22T06:59:55.555Z,31.73
2023-02-22T07:02:22.715Z,69.77
2023-02-22T07:04:49.773Z,25.73
2023-02-22T07:07:16.997Z,30.60
2023-02-22T07:09:47.606Z,20.53
2023-02-22T07:12:14.672Z,26.23
2023-02-22T07:14:41.821Z,27.30
2023-02-22T07:17:08.932Z,23.70
2023-02-22T07:19:36.002Z,29.93
2023-02-22T07:22:03.179Z,25.50
2023-02-22T07:24:30.292Z,29.97
2023-02-22T07:26:57.381Z,28.70
2023-02-22T07:29:24.462Z,24.83
2023-02-22T07:31:51.697Z,31.50
2023-02-22T07:34:18.832Z,30.57
2023-02-22T07:36:45.956Z,27.73
2023-02-22T07:39:13.022Z,27.17
2023-02-22T07:41:40.299Z,30.13
2023-02-22T07:44:21.614Z,35.70
2023-02-22T07:46:50.268Z,29.17
2023-02-22T07:49:17.798Z,33.50
2023-02-22T07:51:44.911Z,31.87
2023-02-22T07:54:11.979Z,32.93
2023-02-22T07:56:45.056Z,32.27
2023-02-22T07:59:12.192Z,30.63
2023-02-22T08:01:39.384Z,32.10
2023-02-22T08:04:06.580Z,34.47
2023-02-22T08:06:33.687Z,29.73
2023-02-22T08:09:00.905Z,34.80
2023-02-22T08:11:28.009Z,37.00
2023-02-22T08:13:55.077Z,40.87
2023-02-22T08:16:22.208Z,34.50
2023-02-22T08:18:49.281Z,36.73
2023-02-22T08:21:17.173Z,47.97
2023-02-22T08:23:44.383Z,39.47
2023-02-22T08:26:15.600Z,43.63
2023-02-22T08:28:43.134Z,37.57
2023-02-22T08:31:10.625Z,35.30
2023-02-22T08:33:37.799Z,42.63
2023-02-22T08:36:05.052Z,40.07
2023-02-22T08:38:33.992Z,33.27
2023-02-22T08:41:01.130Z,41.13
2023-02-22T08:43:28.592Z,43.60
2023-02-22T08:45:57.631Z,41.77
2023-02-22T08:48:25.063Z,42.57
2023-02-22T08:50:52.173Z,42.47
2023-02-22T08:53:19.316Z,35.10
2023-02-22T08:55:46.455Z,34.73
2023-02-22T08:58:13.673Z,37.67
2023-02-22T09:00:41.564Z,41.87
2023-02-22T09:03:13.075Z,39.40
2023-02-22T09:05:40.598Z,35.30
2023-02-22T09:08:07.789Z,37.57
2023-02-22T09:10:35.224Z,35.70
2023-02-22T09:13:04.009Z,33.83
2023-02-22T09:15:31.448Z,30.70
2023-02-22T09:17:58.613Z,29.40
2023-02-22T09:20:26.215Z,30.47
2023-02-22T09:22:53.779Z,31.77
2023-02-22T09:25:21.272Z,27.10
2023-02-22T09:27:50.010Z,27.70
2023-02-22T09:30:26.871Z,26.00
2023-02-22T09:32:55.924Z,24.40
2023-02-22T09:35:26.978Z,22.70
2023-02-22T09:38:00.011Z,24.50
2023-02-22T09:40:30.303Z,24.63
2023-02-22T09:43:31.144Z,21.17
2023-02-22T09:46:19.205Z,21.63
2023-02-22T09:49:19.457Z,22.13
2023-02-22T09:51:58.656Z,24.67
2023-02-22T09:54:34.235Z,17.13
2023-02-22T09:57:05.536Z,22.43
2023-02-22T09:59:39.464Z,20.40
2023-02-22T10:02:30.081Z,19.33
2023-02-22T10:05:17.734Z,17.07
2023-02-22T10:07:52.266Z,17.93
2023-02-22T10:10:22.048Z,14.30
2023-02-22T10:13:05.897Z,18.57
2023-02-22T10:15:42.404Z,17.17
2023-02-22T10:18:42.476Z,14.97
2023-02-22T10:21:36.898Z,17.23
2023-02-22T10:24:13.672Z,18.37
2023-02-22T10:26:44.047Z,15.93
2023-02-22T10:29:11.092Z,18.13
2023-02-22T10:31:44.041Z,14.37
2023-02-22T10:34:41.142Z,14.83
2023-02-22T10:37:21.347Z,15.00
2023-02-22T10:39:49.898Z,15.27
2023-02-22T10:42:17.036Z,18.23
2023-02-22T10:44:44.089Z,14.37
2023-02-22T10:47:16.599Z,19.03
2023-02-22T10:49:49.797Z,16.87
2023-02-22T10:52:27.234Z,13.67
2023-02-22T10:55:13.750Z,12.90
2023-02-22T10:57:44.195Z,14.60
2023-02-22T11:00:19.621Z,11.13
2023-02-22T11:03:16.555Z,10.43
2023-02-22T11:05:43.982Z,11.27
2023-02-22T11:08:20.536Z,17.07
2023-02-22T11:10:52.611Z,12.77
2023-02-22T11:13:19.701Z,12.17
2023-02-22T11:15:46.940Z,11.07
2023-02-22T11:18:25.040Z,14.40
2023-02-22T11:21:00.968Z,11.87
2023-02-22T11:23:28.477Z,11.83
2023-02-22T11:26:11.296Z,10.90
2023-02-22T11:28:49.864Z,14.03
2023-02-22T11:31:23.282Z,11.90
2023-02-22T11:34:01.187Z,14.27
2023-02-22T11:36:42.423Z,8.83
2023-02-22T11:39:34.552Z,9.43
2023-02-22T11:42:28.065Z,11.07
2023-02-22T11:45:24.700Z,11.90
2023-02-22T11:47:52.542Z,11.13
2023-02-22T11:50:49.840Z,18.23
2023-02-22T11:53:38.053Z,11.73
2023-02-22T11:56:38.217Z,12.10
2023-02-22T11:59:29.682Z,12.20
2023-02-22T12:02:19.490Z,10.20
2023-02-22T12:05:01.726Z,10.50
2023-02-22T12:07:48.566Z,11.93
2023-02-22T12:10:26.722Z,10.40
2023-02-22T12:13:17.090Z,12.53
2023-02-22T12:15:56.724Z,9.30
2023-02-22T12:18:45.298Z,10.07
2023-02-22T12:21:16.802Z,8.83
2023-02-22T12:24:16.396Z,9.83
2023-02-22T12:26:50.410Z,9.10
2023-02-22T12:29:41.467Z,9.20
2023-02-22T12:32:24.195Z,9.40
2023-02-22T12:34:57.425Z,8.73
2023-02-22T12:37:29.807Z,8.43
2023-02-22T12:39:56.916Z,9.73
2023-02-22T12:42:33.956Z,9.10
2023-02-22T12:45:08.294Z,8.30
2023-02-22T12:47:49.025Z,10.00
2023-02-22T12:50:21.079Z,10.43
2023-02-22T12:53:01.580Z,8.40
2023-02-22T12:55:39.107Z,8.47
2023-02-22T12:58:31.221Z,8.67
2023-02-22T13:01:12.025Z,9.70
2023-02-22T13:03:44.051Z,7.63
2023-02-22T13:06:35.388Z,12.67
2023-02-22T13:09:15.907Z,9.23
2023-02-22T13:11:55.455Z,8.90
2023-02-22T13:14:57.212Z,9.20
2023-02-22T13:17:51.061Z,9.43
2023-02-22T13:20:22.300Z,9.27
2023-02-22T13:23:02.821Z,8.53
2023-02-22T13:25:44.483Z,8.67
2023-02-22T13:28:11.507Z,8.60
2023-02-22T13:30:45.447Z,9.43
2023-02-22T13:33:44.139Z,7.00
2023-02-22T13:36:38.497Z,7.90
2023-02-22T13:39:40.467Z,9.53
2023-02-22T13:42:50.651Z,9.80
2023-02-22T13:45:44.317Z,8.43
2023-02-22T13:48:37.388Z,7.70
2023-02-22T13:51:04.909Z,9.27
2023-02-22T13:53:56.003Z,7.20
2023-02-22T13:56:24.924Z,6.43
2023-02-22T13:59:01.068Z,7.10
2023-02-22T14:01:39.772Z,7.03
2023-02-22T14:04:29.389Z,8.77
2023-02-22T14:07:18.992Z,7.20
2023-02-22T14:09:57.372Z,7.50
2023-02-22T14:12:29.893Z,7.37
2023-02-22T14:15:28.360Z,7.30
2023-02-22T14:18:01.836Z,5.30
2023-02-22T14:20:37.081Z,7.07
2023-02-22T14:23:31.906Z,7.03
2023-02-22T14:26:28.514Z,6.23
2023-02-22T14:29:15.488Z,6.07
2023-02-22T14:31:50.633Z,7.27
2023-02-22T14:34:18.981Z,7.40
2023-02-22T14:37:26.109Z,6.30
2023-02-22T14:40:02.079Z,6.60
2023-02-22T14:42:37.831Z,7.27
2023-02-22T14:45:17.073Z,6.80
2023-02-22T14:47:50.490Z,6.70
2023-02-22T14:50:41.907Z,5.77
2023-02-22T14:53:27.217Z,8.40
2023-02-22T14:56:06.986Z,5.73
2023-02-22T14:58:48.638Z,8.47
2023-02-22T15:01:44.465Z,6.93
2023-02-22T15:04:21.227Z,9.07
2023-02-22T15:06:49.517Z,8.53
2023-02-22T15:09:25.752Z,8.00
2023-02-22T15:12:12.861Z,5.63
2023-02-22T15:14:41.688Z,5.90
2023-02-22T15:17:16.180Z,7.17
2023-02-22T15:19:43.417Z,7.57
2023-02-22T15:22:25.012Z,6.67
2023-02-22T15:25:05.222Z,7.90
2023-02-22T15:27:36.809Z,5.43
2023-02-22T15:30:22.470Z,4.77
2023-02-22T15:33:03.173Z,4.70
2023-02-22T15:35:32.808Z,6.43
2023-02-22T15:38:11.441Z,7.50
2023-02-22T15:40:42.918Z,5.17
2023-02-22T15:43:19.149Z,4.67
2023-02-22T15:45:46.612Z,4.93
2023-02-22T15:48:15.788Z,8.90
2023-02-22T15:51:10.533Z,5.33
2023-02-22T15:53:49.580Z,4.47
2023-02-22T15:56:19.782Z,8.37
2023-02-22T15:58:47.566Z,4.60
2023-02-22T16:01:18.868Z,4.73
2023-02-22T16:03:52.942Z,5.23
2023-02-22T16:06:29.447Z,9.10
2023-02-22T16:08:58.813Z,6.13
2023-02-22T16:11:29.902Z,8.30
2023-02-22T16:14:19.598Z,5.87
2023-02-22T16:16:46.683Z,5.80
2023-02-22T16:19:35.696Z,4.60
2023-02-22T16:22:04.850Z,5.97
2023-02-22T16:24:34.105Z,6.07
2023-02-22T16:27:22.668Z,4.93
2023-02-22T16:30:22.190Z,5.50
2023-02-22T16:32:51.183Z,3.63
2023-02-22T16:35:18.328Z,4.17
2023-02-22T16:37:55.038Z,4.07
2023-02-22T16:40:25.513Z,4.43
2023-02-22T16:42:52.910Z,6.17
2023-02-22T16:45:21.549Z,6.13
2023-02-22T16:47:53.627Z,6.77
2023-02-22T16:50:22.025Z,5.33
2023-02-22T16:52:49.104Z,5.77
2023-02-22T16:55:17.785Z,4.37
2023-02-22T16:57:45.161Z,4.13
2023-02-22T17:00:16.080Z,7.30
2023-02-22T17:02:44.871Z,4.23
2023-02-22T17:05:16.177Z,3.60
2023-02-22T17:07:43.347Z,3.87
2023-02-22T17:10:17.641Z,5.77
2023-02-22T17:12:49.033Z,4.03
2023-02-22T17:15:41.906Z,3.30
2023-02-22T17:18:16.117Z,6.40
2023-02-22T17:20:44.952Z,4.53
2023-02-22T17:23:12.303Z,7.03
2023-02-22T17:25:45.126Z,5.70
2023-02-22T17:28:12.887Z,3.33
2023-02-22T17:30:40.234Z,3.83
2023-02-22T17:33:09.566Z,7.03
2023-02-22T17:35:39.297Z,7.20
2023-02-22T17:38:06.638Z,6.03
2023-02-22T17:40:35.584Z,6.13
2023-02-22T17:43:02.962Z,7.30
2023-02-22T17:45:30.223Z,4.17
2023-02-22T17:47:59.068Z,5.53
2023-02-22T17:50:26.340Z,5.50
2023-02-22T17:52:53.441Z,4.63
2023-02-22T17:55:21.883Z,4.83
2023-02-22T17:57:56.822Z,5.90
2023-02-22T18:00:23.898Z,4.60
2023-02-22T18:02:51.875Z,6.00
2023-02-22T18:05:19.160Z,3.97
2023-02-22T18:07:46.749Z,6.97
2023-02-22T18:10:13.926Z,4.33
2023-02-22T18:12:41.177Z,5.13
2023-02-22T18:15:10.717Z,5.40
2023-02-22T18:17:38.084Z,4.70
2023-02-22T18:20:11.600Z,5.10
2023-02-22T18:22:42.645Z,7.77
2023-02-22T18:25:10.740Z,8.43
2023-02-22T18:27:38.127Z,6.77
2023-02-22T18:30:06.029Z,6.93
2023-02-22T18:32:33.499Z,7.43
2023-02-22T18:35:01.055Z,5.20
2023-02-22T18:37:28.361Z,4.67
2023-02-22T18:39:55.933Z,4.73
2023-02-22T18:42:23.668Z,7.30
2023-02-22T18:44:54.432Z,8.93
2023-02-22T18:47:23.009Z,6.53
2023-02-22T18:49:50.080Z,4.87
2023-02-22T18:52:18.262Z,5.50
2023-02-22T18:54:45.501Z,6.27
2023-02-22T18:57:13.086Z,6.03
2023-02-22T18:59:40.986Z,5.50
2023-02-22T19:02:13.989Z,8.37
2023-02-22T19:04:42.069Z,6.77
2023-02-22T19:07:09.125Z,5.07
2023-02-22T19:09:36.528Z,11.80
2023-02-22T19:12:03.626Z,6.67
2023-02-22T19:14:30.761Z,5.40
2023-02-22T19:17:01.368Z,6.63
2023-02-22T19:19:28.464Z,8.30
2023-02-22T19:21:56.438Z,6.80
2023-02-22T19:24:23.678Z,5.50
2023-02-22T19:26:51.646Z,10.63
2023-02-22T19:29:22.076Z,6.20
2023-02-22T19:31:51.325Z,6.73
2023-02-22T19:34:21.695Z,6.20
2023-02-22T19:36:49.183Z,8.90
2023-02-22T19:39:18.869Z,10.07
2023-02-22T19:41:46.651Z,8.20
2023-02-22T19:44:13.766Z,7.43
2023-02-22T19:46:40.946Z,5.13
2023-02-22T19:49:08.192Z,7.13
2023-02-22T19:51:35.770Z,9.43
2023-02-22T19:54:05.303Z,10.43
2023-02-22T19:56:34.858Z,7.57
2023-02-22T19:59:09.264Z,12.70
2023-02-22T20:01:37.225Z,7.73
2023-02-22T20:04:12.039Z,7.97
2023-02-22T20:06:41.545Z,7.30
2023-02-22T20:09:13.569Z,7.23
2023-02-22T20:11:40.927Z,7.77
2023-02-22T20:14:08.187Z,10.07
2023-02-22T20:16:35.786Z,8.53
2023-02-22T20:19:03.415Z,9.90
2023-02-22T20:21:33.015Z,6.10
2023-02-22T20:24:02.349Z,67.97
2023-02-22T20:26:30.868Z,16.43
2023-02-22T20:28:59.199Z,8.60
2023-02-22T20:31:26.586Z,7.70
2023-02-22T20:33:55.510Z,8.77
2023-02-22T20:36:22.789Z,8.53
2023-02-22T20:38:54.021Z,10.60
2023-02-22T20:41:26.836Z,8.77
2023-02-22T20:43:55.545Z,8.10
2023-02-22T20:46:23.897Z,6.77
2023-02-22T20:48:55.552Z,8.47
2023-02-22T20:51:22.868Z,6.37
2023-02-22T20:53:50.217Z,6.23
2023-02-22T20:56:22.766Z,8.73
2023-02-22T20:58:50.014Z,7.87
2023-02-22T21:01:19.468Z,7.73
2023-02-22T21:03:47.179Z,8.97
2023-02-22T21:06:15.876Z,10.67
2023-02-22T21:08:50.693Z,9.20
2023-02-22T21:11:18.941Z,13.37
2023-02-22T21:13:46.245Z,15.63
2023-02-22T21:16:27.527Z,11.10
2023-02-22T21:18:58.574Z,8.13
2023-02-22T21:21:26.362Z,9.37
2023-02-22T21:23:55.311Z,8.87
2023-02-22T21:26:26.391Z,9.80
2023-02-22T21:28:54.239Z,11.27
2023-02-22T21:31:23.987Z,6.43
2023-02-22T21:33:53.749Z,7.20
2023-02-22T21:36:25.104Z,22.10
2023-02-22T21:38:57.385Z,6.97
2023-02-22T21:41:27.757Z,5.77
2023-02-22T21:43:58.383Z,6.80
2023-02-22T21:46:27.366Z,6.17
2023-02-22T21:48:54.488Z,11.23
2023-02-22T21:51:25.237Z,6.00
2023-02-22T21:53:54.261Z,6.37
2023-02-22T21:56:28.651Z,7.17
2023-02-22T21:59:02.796Z,4.13
2023-02-22T22:01:32.533Z,4.13
2023-02-22T22:04:00.333Z,3.70
2023-02-22T22:06:29.137Z,5.80
2023-02-22T22:08:57.375Z,5.67
2023-02-22T22:11:25.244Z,5.77
2023-02-22T22:13:56.945Z,7.23
2023-02-22T22:16:26.124Z,4.37
2023-02-22T22:18:54.328Z,5.87
2023-02-22T22:21:22.775Z,5.50
2023-02-22T22:23:50.578Z,4.10
2023-02-22T22:26:19.921Z,4.13
2023-02-22T22:28:52.197Z,5.77
2023-02-22T22:31:21.012Z,5.20
2023-02-22T22:33:48.428Z,7.13
2023-02-22T22:36:17.297Z,4.93
2023-02-22T22:38:47.044Z,4.67
2023-02-22T22:41:17.183Z,4.87
2023-02-22T22:43:47.318Z,4.23
2023-02-22T22:46:16.591Z,6.30
2023-02-22T22:48:46.876Z,5.97
2023-02-22T22:51:19.753Z,3.90
2023-02-22T22:53:48.763Z,6.03
2023-02-22T22:56:21.707Z,7.47
2023-02-22T22:58:51.184Z,8.73
2023-02-22T23:01:26.609Z,5.57
2023-02-22T23:04:01.806Z,4.23
2023-02-22T23:06:32.939Z,5.00
2023-02-22T23:09:11.565Z,4.57
2023-02-22T23:11:44.408Z,4.83
2023-02-22T23:14:20.351Z,3.50
2023-02-22T23:16:48.200Z,4.13
2023-02-22T23:19:15.725Z,5.77
2023-02-22T23:21:43.950Z,5.30
2023-02-22T23:24:15.147Z,5.70
2023-02-22T23:26:42.731Z,4.97
2023-02-22T23:29:09.848Z,5.53
2023-02-22T23:31:39.643Z,5.23
2023-02-22T23:34:13.880Z,8.97
2023-02-22T23:36:44.374Z,6.60
2023-02-22T23:39:12.025Z,7.13
2023-02-22T23:41:39.118Z,8.57
2023-02-22T23:44:13.188Z,8.37
2023-02-22T23:46:41.291Z,11.23
2023-02-22T23:49:27.751Z,11.63
2023-02-22T23:52:03.567Z,22.33
2023-02-22T23:54:36.704Z,17.53
2023-02-22T23:57:05.263Z,17.13
2023-02-22T23:59:33.526Z,23.73
